Time;durP1;ratioP1;P1;durP2;ratioP2;P2;SDS_P1;SDS_P2;PMS_P1;PMS_P2;Temp;Humidity;BMP_temperature;BMP_pressure;BME280_temperature;BME280_humidity;BME280_pressure;Samples;Min_cycle;Max_cycle;Signal;HPM_P1;HPM_P2
2020/12/27 00:02:13;;;;;;;12.23;7.73;;;;;;;-0.61;62.20;95407.59;6959030;28;20606;-71
2020/12/27 00:05:34;;;;;;;13.37;6.97;;;;;;;-0.57;62.41;95400.47;6985948;28;20227;-72
2020/12/27 00:08:59;;;;;;;7.90;7.00;;;;;;;-0.55;62.18;95401.22;6991047;28;20250;-72
2020/12/27 00:12:19;;;;;;;10.23;8.20;;;;;;;-0.58;62.23;95398.78;6969229;28;20671;-71
2020/12/27 00:15:40;;;;;;;12.57;8.97;;;;;;;-0.57;62.49;95382.22;6983742;28;20705;-72
2020/12/27 00:19:00;;;;;;;8.80;7.60;;;;;;;-0.51;63.00;95372.38;6977928;28;20229;-71
2020/12/27 00:22:21;;;;;;;9.17;7.60;;;;;;;-0.48;62.68;95361.78;6999792;28;20682;-72
2020/12/27 00:25:41;;;;;;;13.67;9.37;;;;;;;-0.48;62.88;95342.69;7000494;28;20219;-72
2020/12/27 00:29:02;;;;;;;9.73;8.57;;;;;;;-0.44;62.87;95336.41;6989420;28;20308;-72
2020/12/27 00:32:27;;;;;;;12.27;8.07;;;;;;;-0.46;62.87;95318.25;6965037;28;21012;-73
2020/12/27 00:35:50;;;;;;;10.27;7.60;;;;;;;-0.50;62.22;95310.59;6996051;28;20206;-73
2020/12/27 00:39:13;;;;;;;9.50;8.27;;;;;;;-0.66;62.14;95320.88;7001519;28;20233;-73
2020/12/27 00:42:36;;;;;;;8.87;7.93;;;;;;;-0.73;62.82;95311.63;6984397;28;20229;-73
2020/12/27 00:45:58;;;;;;;9.97;8.10;;;;;;;-0.78;62.71;95310.13;6981853;28;20670;-73
2020/12/27 00:49:21;;;;;;;9.57;7.63;;;;;;;-0.75;62.83;95305.63;7001369;28;20217;-72
2020/12/27 00:52:42;;;;;;;7.10;6.27;;;;;;;-0.72;62.93;95305.50;7006676;28;20217;-73
2020/12/27 00:56:05;;;;;;;6.53;5.93;;;;;;;-0.71;62.65;95291.56;7006314;28;20234;-72
2020/12/27 00:59:27;;;;;;;7.53;6.00;;;;;;;-0.63;62.42;95293.81;6997075;28;20227;-73
2020/12/27 01:02:50;;;;;;;6.53;5.83;;;;;;;-0.66;62.23;95276.56;6999946;28;20582;-72
2020/12/27 01:06:12;;;;;;;7.43;6.03;;;;;;;-0.68;61.63;95269.69;7003199;28;20233;-73
2020/12/27 01:09:33;;;;;;;8.13;6.00;;;;;;;-0.69;61.69;95265.41;6983013;28;20236;-73
2020/12/27 01:12:53;;;;;;;7.20;5.97;;;;;;;-0.74;61.64;95249.97;6978802;28;20822;-73
2020/12/27 01:16:18;;;;;;;6.20;5.60;;;;;;;-0.69;61.75;95240.16;6996915;28;20215;-73
2020/12/27 01:19:41;;;;;;;7.23;5.63;;;;;;;-0.60;61.30;95234.53;7008420;28;20266;-73
2020/12/27 01:23:04;;;;;;;7.47;5.87;;;;;;;-0.59;61.16;95228.41;6990584;28;20663;-73
2020/12/27 01:26:32;;;;;;;6.30;5.70;;;;;;;-0.54;61.42;95228.19;7017086;27;20226;-74
2020/12/27 01:29:55;;;;;;;9.10;6.37;;;;;;;-0.55;61.42;95222.13;7002943;28;20894;-73
2020/12/27 01:33:15;;;;;;;7.30;5.97;;;;;;;-0.57;61.34;95228.34;6987265;28;20642;-72
2020/12/27 01:36:38;;;;;;;8.07;6.20;;;;;;;-0.64;61.35;95224.31;7006401;28;20690;-72
2020/12/27 01:40:00;;;;;;;7.93;5.80;;;;;;;-0.70;60.99;95222.81;7012829;28;20627;-73
2020/12/27 01:43:21;;;;;;;7.60;6.80;;;;;;;-0.67;61.49;95227.91;6993580;28;20237;-73
2020/12/27 01:46:45;;;;;;;9.10;6.87;;;;;;;-0.63;61.89;95218.19;6990359;28;20612;-73
2020/12/27 01:50:08;;;;;;;12.90;7.23;;;;;;;-0.68;61.60;95207.97;7004976;28;20214;-72
2020/12/27 01:53:29;;;;;;;8.77;7.07;;;;;;;-0.68;62.00;95196.69;7007831;28;20229;-73
2020/12/27 01:56:54;;;;;;;9.90;7.90;;;;;;;-0.69;62.11;95195.00;6999033;28;20217;-72
2020/12/27 02:00:16;;;;;;;12.73;9.77;;;;;;;-0.73;62.12;95183.88;7003528;28;20262;-73
2020/12/27 02:03:40;;;;;;;12.10;9.30;;;;;;;-0.77;62.19;95165.84;6986891;28;20296;-72
2020/12/27 02:07:03;;;;;;;9.70;8.50;;;;;;;-0.79;62.08;95152.84;6982452;28;20214;-73
2020/12/27 02:10:27;;;;;;;12.67;8.27;;;;;;;-0.81;62.25;95141.69;6991283;28;20214;-72
2020/12/27 02:13:53;;;;;;;10.77;8.57;;;;;;;-0.83;62.36;95127.84;6984431;28;20328;-73
2020/12/27 02:17:16;;;;;;;13.50;10.20;;;;;;;-0.89;62.67;95108.13;7002394;28;20210;-73
2020/12/27 02:20:39;;;;;;;12.10;10.90;;;;;;;-0.89;63.12;95083.81;7010928;28;20229;-73
2020/12/27 02:24:00;;;;;;;12.57;9.27;;;;;;;-0.99;62.77;95077.34;6995564;28;20224;-73
2020/12/27 02:27:23;;;;;;;12.47;9.90;;;;;;;-1.05;63.10;95054.19;6994103;28;20213;-73
2020/12/27 02:30:43;;;;;;;12.73;10.20;;;;;;;-1.15;62.98;95045.94;6984752;28;20244;-73
2020/12/27 02:34:06;;;;;;;11.17;9.27;;;;;;;-1.14;63.45;95041.59;6988912;27;20216;-73
2020/12/27 02:37:26;;;;;;;10.90;9.57;;;;;;;-1.20;63.15;95031.44;6996779;28;20299;-73
2020/12/27 02:40:49;;;;;;;10.40;8.67;;;;;;;-1.22;63.31;95005.50;6989876;28;20244;-72
2020/12/27 02:44:10;;;;;;;7.83;6.90;;;;;;;-1.19;63.40;94988.84;6998654;28;20222;-72
2020/12/27 02:47:30;;;;;;;7.83;6.90;;;;;;;-1.09;63.76;94971.88;6990003;28;20252;-73
2020/12/27 02:50:51;;;;;;;8.10;6.97;;;;;;;-1.02;63.26;94955.88;7018958;28;20216;-73
2020/12/27 02:54:11;;;;;;;7.50;6.43;;;;;;;-1.06;62.78;94956.09;7005077;28;20210;-73
2020/12/27 02:57:31;;;;;;;9.03;6.77;;;;;;;-1.08;62.82;94950.09;6995814;28;20214;-73
2020/12/27 03:00:56;;;;;;;6.90;5.83;;;;;;;-1.06;62.77;94948.28;6999216;28;20214;-72
2020/12/27 03:04:17;;;;;;;9.23;6.20;;;;;;;-1.01;61.91;94928.91;6978421;28;20223;-73
2020/12/27 03:07:37;;;;;;;9.20;5.80;;;;;;;-1.04;62.34;94916.00;6982717;28;20220;-73
2020/12/27 03:10:58;;;;;;;8.03;5.90;;;;;;;-1.07;62.07;94905.75;6993816;28;20330;-73
2020/12/27 03:14:21;;;;;;;6.30;5.47;;;;;;;-1.12;62.03;94906.88;7001581;28;20222;-73
2020/12/27 03:17:46;;;;;;;8.90;5.33;;;;;;;-1.18;62.07;94892.41;6980685;28;20221;-73
2020/12/27 03:21:11;;;;;;;8.83;6.00;;;;;;;-1.14;61.86;94898.28;6988967;28;20742;-73
2020/12/27 03:24:34;;;;;;;6.13;4.73;;;;;;;-1.08;61.99;94900.59;6983219;28;20329;-73
2020/12/27 03:27:54;;;;;;;7.23;5.67;;;;;;;-0.98;61.94;94881.84;7001903;28;20298;-74
2020/12/27 03:31:15;;;;;;;5.70;5.17;;;;;;;-0.94;61.46;94882.50;6996731;28;20218;-73
2020/12/27 03:34:35;;;;;;;6.50;5.73;;;;;;;-0.85;61.19;94876.81;6991708;28;20259;-72
2020/12/27 03:37:56;;;;;;;7.87;5.30;;;;;;;-0.80;60.86;94867.00;6986500;28;20214;-73
2020/12/27 03:41:16;;;;;;;32.93;22.20;;;;;;;-0.71;61.20;94865.72;7012760;28;20582;-73
2020/12/27 03:44:36;;;;;;;9.47;7.73;;;;;;;-0.73;60.79;94857.97;7004417;28;20232;-73
2020/12/27 03:47:59;;;;;;;7.17;5.23;;;;;;;-0.69;61.30;94854.28;6989897;28;20219;-73
2020/12/27 03:51:22;;;;;;;6.23;4.97;;;;;;;-0.66;61.04;94848.06;6990416;28;20504;-73
2020/12/27 03:54:42;;;;;;;6.37;5.00;;;;;;;-0.70;61.15;94829.13;6990595;28;20252;-73
2020/12/27 03:58:03;;;;;;;8.17;5.53;;;;;;;-0.78;61.28;94826.09;6985916;28;20585;-73
2020/12/27 04:01:23;;;;;;;6.33;5.73;;;;;;;-0.80;61.35;94816.63;6984218;28;20275;-72
2020/12/27 04:04:43;;;;;;;6.40;5.73;;;;;;;-0.80;61.20;94809.66;6978246;28;20217;-72
2020/12/27 04:08:06;;;;;;;6.57;5.60;;;;;;;-0.84;61.41;94804.69;6960008;28;20624;-73
2020/12/27 04:11:30;;;;;;;9.33;6.50;;;;;;;-0.90;61.69;94793.66;7010322;28;20217;-73
2020/12/27 04:14:54;;;;;;;8.03;6.20;;;;;;;-0.88;61.53;94777.97;7002396;28;20230;-72
2020/12/27 04:18:17;;;;;;;7.60;6.23;;;;;;;-0.88;61.59;94778.78;7000376;28;20734;-73
2020/12/27 04:21:38;;;;;;;10.30;6.03;;;;;;;-0.98;61.18;94761.13;6990843;28;20217;-73
2020/12/27 04:24:58;;;;;;;6.97;5.50;;;;;;;-1.12;61.14;94753.16;6986703;27;20217;-72
2020/12/27 04:28:18;;;;;;;6.17;5.50;;;;;;;-1.22;61.09;94746.75;6995152;28;20234;-73
2020/12/27 04:31:39;;;;;;;5.57;4.67;;;;;;;-1.24;61.25;94749.41;7022582;28;20224;-73
2020/12/27 04:35:02;;;;;;;5.07;4.53;;;;;;;-1.23;61.24;94740.69;7021250;28;20225;-73
2020/12/27 04:38:27;;;;;;;5.93;5.00;;;;;;;-1.16;61.41;94736.88;7020116;28;20314;-72
2020/12/27 04:41:49;;;;;;;7.43;6.33;;;;;;;-1.04;61.23;94727.53;6993803;28;20356;-72
2020/12/27 04:45:10;;;;;;;6.77;5.83;;;;;;;-0.95;61.39;94722.69;6988077;28;20704;-72
2020/12/27 04:48:31;;;;;;;5.43;4.77;;;;;;;-0.82;60.79;94711.63;7002427;28;20236;-73
2020/12/27 04:51:52;;;;;;;5.07;4.57;;;;;;;-0.78;60.59;94719.19;7008435;28;20240;-72
2020/12/27 04:55:17;;;;;;;7.13;5.33;;;;;;;-0.82;60.33;94712.47;7018259;28;20210;-72
2020/12/27 04:58:38;;;;;;;5.90;4.90;;;;;;;-0.84;60.40;94703.88;7011347;28;20239;-72
2020/12/27 05:01:58;;;;;;;5.77;5.17;;;;;;;-0.81;60.48;94701.13;7022432;28;20213;-72
2020/12/27 05:05:19;;;;;;;5.40;4.63;;;;;;;-0.77;60.28;94688.78;7021689;27;20218;-73
2020/12/27 05:08:39;;;;;;;6.53;4.87;;;;;;;-0.74;60.14;94694.66;7018199;28;20228;-72
2020/12/27 05:12:02;;;;;;;5.70;4.60;;;;;;;-0.73;60.00;94687.66;7008344;28;20233;-72
2020/12/27 05:15:23;;;;;;;6.03;5.43;;;;;;;-0.77;60.01;94691.38;7027770;28;20236;-72
2020/12/27 05:18:52;;;;;;;7.73;6.40;;;;;;;-0.82;60.38;94690.78;7014383;28;20305;-73
2020/12/27 05:22:12;;;;;;;6.73;6.10;;;;;;;-0.88;60.81;94691.94;7024511;28;20224;-73
2020/12/27 05:25:34;;;;;;;7.50;6.33;;;;;;;-0.99;60.77;94687.31;7023863;28;21590;-72
2020/12/27 05:28:57;;;;;;;9.77;6.63;;;;;;;-1.05;61.22;94668.53;7013547;28;20232;-72
2020/12/27 05:32:17;;;;;;;7.47;6.23;;;;;;;-1.07;61.28;94662.59;7007535;28;20232;-71
2020/12/27 05:35:40;;;;;;;8.03;6.30;;;;;;;-1.09;61.71;94651.38;6997633;28;20610;-72
2020/12/27 05:39:03;;;;;;;8.60;7.03;;;;;;;-1.11;61.71;94629.81;7008469;28;20713;-73
2020/12/27 05:42:26;;;;;;;9.30;6.80;;;;;;;-1.18;61.64;94607.59;6993914;28;20257;-72
2020/12/27 05:45:47;;;;;;;7.80;6.87;;;;;;;-1.26;61.65;94597.59;7025916;28;20225;-72
2020/12/27 05:49:12;;;;;;;7.50;6.27;;;;;;;-1.35;61.38;94587.66;6981636;28;20242;-72
2020/12/27 05:52:35;;;;;;;10.80;9.30;;;;;;;-1.48;61.75;94566.66;7007736;28;20214;-73
2020/12/27 05:55:59;;;;;;;14.57;10.73;;;;;;;-1.46;61.87;94569.19;6982975;28;20225;-72
2020/12/27 05:59:21;;;;;;;7.63;6.17;;;;;;;-1.52;61.75;94552.13;6985658;28;20223;-72
2020/12/27 06:02:44;;;;;;;7.07;5.40;;;;;;;-1.53;61.92;94542.63;6998829;28;20240;-72
2020/12/27 06:06:08;;;;;;;7.60;5.30;;;;;;;-1.42;61.67;94534.25;7006479;28;20217;-72
2020/12/27 06:09:44;;;;;;;8.47;6.43;;;;;;;-1.33;61.76;94529.38;6996425;28;20217;-73
2020/12/27 06:13:10;;;;;;;7.73;5.53;;;;;;;-1.28;61.81;94530.88;6986754;28;20221;-72
2020/12/27 06:16:51;;;;;;;5.57;4.50;;;;;;;-1.26;61.85;94513.41;7010772;28;20214;-73
2020/12/27 06:20:19;;;;;;;4.83;4.33;;;;;;;-1.25;61.38;94512.47;6999661;28;20230;-73
2020/12/27 06:23:39;;;;;;;5.37;4.60;;;;;;;-1.18;61.29;94511.22;6986746;28;20220;-72
2020/12/27 06:27:00;;;;;;;5.93;4.37;;;;;;;-1.13;61.33;94501.38;6997216;28;20234;-73
2020/12/27 06:30:29;;;;;;;4.63;3.77;;;;;;;-1.12;61.21;94490.88;6998946;28;20211;-74
2020/12/27 06:33:50;;;;;;;5.43;4.63;;;;;;;-1.15;61.25;94478.00;6986574;28;20214;-73
2020/12/27 06:37:13;;;;;;;5.67;5.00;;;;;;;-1.09;61.21;94474.22;7024294;27;20314;-71
2020/12/27 06:40:33;;;;;;;4.30;3.90;;;;;;;-1.09;60.84;94459.44;7004463;28;20278;-71
2020/12/27 06:43:56;;;;;;;5.30;4.80;;;;;;;-1.06;60.71;94455.84;7013264;28;20303;-70
2020/12/27 06:47:19;;;;;;;5.17;4.50;;;;;;;-1.02;60.75;94445.16;7023485;28;20643;-72
2020/12/27 06:50:45;;;;;;;5.53;5.03;;;;;;;-1.00;60.84;94434.63;7026952;28;20721;-72
2020/12/27 06:54:08;;;;;;;7.30;4.50;;;;;;;-1.01;60.90;94438.19;7013123;28;20233;-72
2020/12/27 06:57:44;;;;;;;4.80;4.30;;;;;;;-1.09;60.38;94429.94;7010005;28;20589;-72
2020/12/27 07:01:13;;;;;;;5.57;4.63;;;;;;;-1.09;60.51;94419.53;7009650;27;20217;-72
2020/12/27 07:04:39;;;;;;;5.50;3.67;;;;;;;-1.05;60.28;94421.00;7001767;28;20330;-72
2020/12/27 07:08:06;;;;;;;4.43;3.30;;;;;;;-1.02;59.79;94413.03;7007104;28;20213;-72
2020/12/27 07:11:32;;;;;;;3.33;3.03;;;;;;;-1.08;59.67;94410.78;7017634;28;20672;-71
2020/12/27 07:14:55;;;;;;;3.53;3.23;;;;;;;-0.99;60.12;94402.44;7032782;27;20256;-72
2020/12/27 07:18:25;;;;;;;3.57;3.13;;;;;;;-0.94;59.95;94395.19;7023039;28;20316;-73
2020/12/27 07:21:47;;;;;;;4.47;3.33;;;;;;;-0.89;59.98;94390.56;7026641;28;20612;-72
2020/12/27 07:25:13;;;;;;;3.70;3.40;;;;;;;-0.90;59.96;94384.50;7006329;28;20215;-73
2020/12/27 07:28:34;;;;;;;9.13;8.07;;;;;;;-0.86;59.75;94372.16;6996071;28;20289;-73
2020/12/27 07:31:57;;;;;;;50.73;29.77;;;;;;;-0.89;60.32;94365.34;7023414;28;20753;-72
2020/12/27 07:35:24;;;;;;;30.23;20.30;;;;;;;-0.90;60.34;94350.63;7017671;28;20223;-72
2020/12/27 07:38:59;;;;;;;37.50;22.30;;;;;;;-0.95;60.49;94346.59;7013260;28;20216;-72
2020/12/27 07:42:21;;;;;;;9.63;7.13;;;;;;;-0.97;60.74;94335.44;7016006;27;20586;-73
2020/12/27 07:45:41;;;;;;;10.73;7.80;;;;;;;-0.97;60.33;94320.66;7027788;28;20640;-73
2020/12/27 07:49:01;;;;;;;9.77;6.93;;;;;;;-0.97;60.30;94307.63;7011608;28;20695;-72
2020/12/27 07:52:22;;;;;;;4.57;3.80;;;;;;;-0.98;60.28;94307.72;7013503;28;20221;-73
2020/12/27 07:55:42;;;;;;;6.60;5.90;;;;;;;-0.98;60.27;94298.13;7026707;28;20288;-73
2020/12/27 07:59:04;;;;;;;12.03;9.17;;;;;;;-0.89;60.62;94296.72;6991929;28;20691;-72
2020/12/27 08:02:24;;;;;;;16.50;13.20;;;;;;;-0.85;60.52;94282.59;7019870;28;20272;-72
2020/12/27 08:05:48;;;;;;;11.57;8.10;;;;;;;-0.81;60.93;94285.88;7026776;28;20292;-72
2020/12/27 08:09:10;;;;;;;10.50;7.43;;;;;;;-0.80;60.99;94271.88;7012697;28;20226;-72
2020/12/27 08:12:31;;;;;;;7.07;6.37;;;;;;;-0.76;60.78;94265.56;7019747;28;20309;-74
2020/12/27 08:15:51;;;;;;;10.10;6.30;;;;;;;-0.74;60.81;94246.28;7025849;28;20220;-74
2020/12/27 08:19:18;;;;;;;4.97;4.10;;;;;;;-0.66;60.59;94246.69;7023541;28;20693;-75
2020/12/27 08:22:42;;;;;;;4.90;4.40;;;;;;;-0.54;60.20;94243.28;7018313;28;20678;-74
2020/12/27 08:26:05;;;;;;;5.33;4.77;;;;;;;-0.43;59.89;94251.31;7007276;28;20225;-74
2020/12/27 08:29:28;;;;;;;8.20;5.63;;;;;;;-0.34;59.81;94238.59;6994671;28;20289;-72
2020/12/27 08:32:48;;;;;;;7.50;5.40;;;;;;;-0.28;59.90;94225.19;7014741;28;20219;-73
2020/12/27 08:36:09;;;;;;;6.33;4.83;;;;;;;-0.23;59.87;94226.56;7006227;28;20313;-73
2020/12/27 08:39:35;;;;;;;5.17;4.30;;;;;;;-0.16;59.65;94220.03;7008792;28;20283;-71
2020/12/27 08:42:59;;;;;;;4.83;4.40;;;;;;;-0.09;59.69;94210.03;6987159;28;21021;-72
2020/12/27 08:46:21;;;;;;;5.40;4.90;;;;;;;-0.02;59.15;94196.50;6990045;28;20226;-72
2020/12/27 08:49:54;;;;;;;16.67;10.50;;;;;;;0.13;59.54;94196.44;6981846;28;20227;-73
2020/12/27 08:53:15;;;;;;;9.87;8.67;;;;;;;0.22;59.60;94186.22;7000940;28;20620;-73
2020/12/27 08:56:35;;;;;;;9.47;7.83;;;;;;;0.27;59.95;94178.09;6975061;28;20747;-71
2020/12/27 09:00:15;;;;;;;5.10;4.60;;;;;;;0.39;59.72;94170.31;6983316;28;20301;-72
2020/12/27 09:03:42;;;;;;;6.17;5.57;;;;;;;0.51;59.24;94167.78;6980677;28;20213;-71
2020/12/27 09:07:06;;;;;;;5.57;4.43;;;;;;;0.53;58.80;94166.75;6981923;28;20684;-72
2020/12/27 09:10:33;;;;;;;5.33;4.30;;;;;;;0.62;58.78;94147.84;6979175;28;20299;-73
2020/12/27 09:13:54;;;;;;;7.73;4.97;;;;;;;0.70;59.06;94135.13;6991463;28;20289;-72
2020/12/27 09:17:18;;;;;;;7.90;6.60;;;;;;;0.81;59.36;94129.97;6979562;28;20294;-72
2020/12/27 09:20:41;;;;;;;11.40;8.00;;;;;;;0.90;59.43;94123.28;6974385;28;20230;-71
2020/12/27 09:24:16;;;;;;;22.77;16.67;;;;;;;0.86;59.24;94104.34;6989306;28;20234;-72
2020/12/27 09:27:40;;;;;;;24.60;19.53;;;;;;;0.93;59.81;94109.16;6995099;28;20242;-72
2020/12/27 09:31:07;;;;;;;14.63;9.90;;;;;;;1.04;58.41;94101.41;6980163;28;20253;-71
2020/12/27 09:34:30;;;;;;;11.57;8.60;;;;;;;1.16;58.05;94093.53;6990927;28;20585;-71
2020/12/27 09:37:51;;;;;;;5.80;5.20;;;;;;;1.24;58.03;94088.59;6990569;28;20218;-71
2020/12/27 09:41:13;;;;;;;4.90;4.20;;;;;;;1.35;57.11;94087.00;6952811;28;20328;-72
2020/12/27 09:44:33;;;;;;;5.20;4.43;;;;;;;1.39;57.03;94070.97;6981507;28;20257;-72
2020/12/27 09:47:58;;;;;;;4.70;4.07;;;;;;;1.46;56.03;94063.53;6986274;28;20231;-73
2020/12/27 09:51:19;;;;;;;3.70;3.40;;;;;;;1.58;55.88;94053.00;6977970;28;20294;-71
2020/12/27 09:54:41;;;;;;;6.20;3.20;;;;;;;1.71;55.62;94050.34;6983317;28;20583;-72
2020/12/27 09:58:01;;;;;;;5.00;3.80;;;;;;;1.79;54.84;94037.50;6978355;28;20228;-72
2020/12/27 10:01:26;;;;;;;4.60;3.57;;;;;;;1.86;54.92;94028.25;6984388;28;20217;-71
2020/12/27 10:04:47;;;;;;;2.90;2.70;;;;;;;1.96;54.29;94008.28;6990471;28;20596;-72
2020/12/27 10:08:07;;;;;;;6.17;3.87;;;;;;;2.01;53.66;94003.53;6982675;28;20685;-71
2020/12/27 10:11:27;;;;;;;7.33;6.03;;;;;;;2.07;55.41;93991.75;6981801;28;20273;-72
2020/12/27 10:14:48;;;;;;;7.87;6.73;;;;;;;2.15;57.80;93976.31;6980815;28;20211;-73
2020/12/27 10:18:08;;;;;;;10.60;8.53;;;;;;;2.22;58.34;93959.16;6944973;28;20217;-73
2020/12/27 10:21:31;;;;;;;13.10;9.40;;;;;;;2.24;58.22;93956.44;6983528;28;20227;-72
2020/12/27 10:24:54;;;;;;;12.47;9.77;;;;;;;2.19;58.58;93935.00;6957099;28;20227;-73
2020/12/27 10:28:17;;;;;;;13.43;10.83;;;;;;;2.13;58.69;93931.09;6989379;28;20220;-72
2020/12/27 10:31:37;;;;;;;13.43;10.87;;;;;;;2.06;59.61;93911.56;6987164;28;20293;-72
2020/12/27 10:35:00;;;;;;;16.00;12.93;;;;;;;1.99;59.41;93895.50;6987446;28;20213;-72
2020/12/27 10:38:20;;;;;;;15.90;12.00;;;;;;;1.98;59.95;93878.13;6974672;28;20339;-72
2020/12/27 10:41:44;;;;;;;17.50;12.67;;;;;;;2.02;60.40;93860.38;6987726;28;20215;-72
2020/12/27 10:45:07;;;;;;;17.30;13.63;;;;;;;2.07;60.65;93848.59;6968877;28;20216;-74
2020/12/27 10:48:30;;;;;;;12.60;11.20;;;;;;;2.20;61.01;93827.53;7002753;28;20261;-74
2020/12/27 10:51:52;;;;;;;10.97;9.80;;;;;;;2.31;60.50;93830.16;7002375;28;20234;-73
2020/12/27 10:55:13;;;;;;;7.43;5.70;;;;;;;2.43;58.94;93813.44;6985692;28;20683;-73
2020/12/27 10:58:33;;;;;;;4.00;3.60;;;;;;;2.59;57.04;93786.84;6995597;28;20242;-72
2020/12/27 11:01:54;;;;;;;4.00;3.13;;;;;;;2.71;55.23;93777.16;7003728;28;20218;-73
2020/12/27 11:05:15;;;;;;;2.70;2.50;;;;;;;2.84;53.96;93776.03;6995854;28;20225;-72
2020/12/27 11:08:41;;;;;;;3.00;2.30;;;;;;;2.93;52.76;93756.91;6986305;28;20299;-72
2020/12/27 11:12:02;;;;;;;2.53;2.33;;;;;;;3.04;52.16;93732.41;7002783;28;20253;-72
2020/12/27 11:15:22;;;;;;;5.73;4.30;;;;;;;3.15;50.74;93715.78;7003080;28;20256;-73
2020/12/27 11:18:45;;;;;;;11.73;7.90;;;;;;;3.26;50.04;93695.56;6983386;28;20246;-72
2020/12/27 11:22:05;;;;;;;17.23;11.97;;;;;;;3.36;49.42;93679.88;6991887;28;20275;-72
2020/12/27 11:25:26;;;;;;;18.17;12.63;;;;;;;3.34;52.03;93664.25;7004755;27;20223;-72
2020/12/27 11:28:47;;;;;;;15.23;11.03;;;;;;;3.35;54.42;93651.97;6990617;28;20696;-72
2020/12/27 11:32:08;;;;;;;14.03;11.83;;;;;;;3.34;55.74;93631.94;7001108;28;21882;-72
2020/12/27 11:35:31;;;;;;;18.90;13.83;;;;;;;3.27;56.81;93605.41;6968819;28;20740;-73
2020/12/27 11:38:51;;;;;;;29.07;16.87;;;;;;;3.29;57.68;93576.41;6966043;28;20247;-74
2020/12/27 11:42:14;;;;;;;15.70;10.53;;;;;;;3.33;57.49;93557.66;6993390;28;20845;-72
2020/12/27 11:45:37;;;;;;;16.33;12.53;;;;;;;3.34;57.84;93538.34;6970446;28;20214;-72
2020/12/27 11:48:57;;;;;;;9.37;7.50;;;;;;;3.32;57.46;93516.63;6993504;28;20225;-72
2020/12/27 11:52:24;;;;;;;10.43;8.60;;;;;;;3.39;57.31;93499.41;6992830;28;20308;-72
2020/12/27 11:55:44;;;;;;;6.13;4.57;;;;;;;3.50;55.34;93479.25;6983279;28;20222;-72
2020/12/27 11:59:07;;;;;;;2.90;2.60;;;;;;;3.64;53.13;93465.72;6957902;28;20249;-72
2020/12/27 12:02:28;;;;;;;2.77;1.97;;;;;;;3.76;49.51;93436.56;6994966;28;20345;-72
2020/12/27 12:05:51;;;;;;;2.60;1.83;;;;;;;3.87;47.56;93436.41;6987180;28;20218;-72
2020/12/27 12:09:11;;;;;;;1.63;1.53;;;;;;;4.01;46.17;93423.81;6990888;28;20225;-72
2020/12/27 12:12:31;;;;;;;2.10;1.80;;;;;;;4.11;45.93;93409.69;6993720;28;20226;-73
2020/12/27 12:15:55;;;;;;;2.80;2.17;;;;;;;4.23;45.37;93389.31;7015515;28;20222;-74
2020/12/27 12:19:17;;;;;;;2.20;2.00;;;;;;;4.33;44.47;93379.59;7018155;28;20359;-72
2020/12/27 12:22:40;;;;;;;2.63;2.20;;;;;;;4.45;42.42;93367.94;7001396;28;20234;-72
2020/12/27 12:26:01;;;;;;;2.93;2.27;;;;;;;4.57;41.93;93355.44;6985979;28;20279;-72
2020/12/27 12:29:21;;;;;;;2.70;2.50;;;;;;;4.64;41.78;93338.09;6982304;28;20214;-74
2020/12/27 12:32:44;;;;;;;3.20;2.90;;;;;;;4.68;42.18;93324.50;7004494;28;20234;-73
2020/12/27 12:36:11;;;;;;;3.70;3.10;;;;;;;4.71;42.85;93305.00;6998887;28;20626;-74
2020/12/27 12:39:35;;;;;;;2.83;2.33;;;;;;;4.71;42.73;93291.84;7003771;28;20222;-74
2020/12/27 12:42:55;;;;;;;2.13;1.67;;;;;;;4.76;41.88;93281.72;7016376;28;20263;-74
2020/12/27 12:46:15;;;;;;;2.30;2.10;;;;;;;4.79;40.83;93262.16;6980020;28;20230;-74
2020/12/27 12:49:36;;;;;;;1.87;1.47;;;;;;;4.83;40.40;93256.47;7007147;28;20249;-73
2020/12/27 12:52:56;;;;;;;2.10;1.90;;;;;;;4.87;40.71;93247.31;6982581;28;20219;-74
2020/12/27 12:56:17;;;;;;;12.03;8.97;;;;;;;4.89;41.28;93250.59;6998579;28;20249;-73
2020/12/27 12:59:41;;;;;;;5.97;4.80;;;;;;;4.93;41.98;93225.66;6981888;28;20229;-72
2020/12/27 13:03:01;;;;;;;3.30;3.00;;;;;;;4.92;43.17;93226.66;7000122;28;20229;-72
2020/12/27 13:06:21;;;;;;;5.27;3.50;;;;;;;4.95;43.26;93213.19;7017710;27;20249;-75
2020/12/27 13:09:44;;;;;;;2.67;2.47;;;;;;;4.97;41.98;93197.25;7017443;27;20232;-72
2020/12/27 13:13:05;;;;;;;3.20;2.77;;;;;;;5.00;41.58;93187.25;6997347;28;20284;-73
2020/12/27 13:16:27;;;;;;;2.73;2.17;;;;;;;5.05;41.58;93176.28;6991456;28;20607;-72
2020/12/27 13:19:48;;;;;;;4.17;3.13;;;;;;;5.08;41.73;93173.34;6997770;28;20229;-73
2020/12/27 13:23:08;;;;;;;2.70;2.43;;;;;;;5.12;41.60;93167.63;7000832;28;20310;-72
2020/12/27 13:26:31;;;;;;;3.00;2.70;;;;;;;5.14;41.92;93157.75;6987102;28;20260;-72
2020/12/27 13:29:51;;;;;;;1.90;1.80;;;;;;;5.16;40.75;93147.91;6989607;28;20707;-73
2020/12/27 13:33:12;;;;;;;1.73;1.60;;;;;;;5.22;41.13;93145.66;6995162;28;20309;-72
2020/12/27 13:36:34;;;;;;;3.03;2.20;;;;;;;5.27;41.71;93133.69;6983179;28;20227;-72
2020/12/27 13:39:55;;;;;;;2.60;1.80;;;;;;;5.34;41.54;93125.97;6988386;28;20241;-72
2020/12/27 13:43:18;;;;;;;5.43;3.30;;;;;;;5.39;41.04;93129.78;6992101;28;20222;-72
2020/12/27 13:46:45;;;;;;;3.33;2.20;;;;;;;5.47;40.48;93107.94;6993023;28;20690;-72
2020/12/27 13:50:07;;;;;;;3.30;2.40;;;;;;;5.56;39.90;93104.38;6995400;28;20215;-72
2020/12/27 13:53:30;;;;;;;23.03;9.47;;;;;;;5.65;40.42;93100.78;7007212;28;20694;-72
2020/12/27 13:56:50;;;;;;;7.57;3.90;;;;;;;5.71;40.43;93097.50;6993713;28;20219;-71
2020/12/27 14:00:11;;;;;;;4.00;3.23;;;;;;;5.77;40.60;93088.16;6977791;28;20227;-72
2020/12/27 14:03:31;;;;;;;5.73;4.27;;;;;;;5.83;40.25;93080.44;6973641;28;20779;-72
2020/12/27 14:06:52;;;;;;;2.10;1.47;;;;;;;5.91;38.68;93074.41;7012853;28;20628;-72
2020/12/27 14:10:12;;;;;;;1.03;0.90;;;;;;;6.02;38.35;93060.91;7002753;28;20219;-72
2020/12/27 14:13:35;;;;;;;1.17;0.90;;;;;;;6.16;38.05;93062.91;7002529;28;20313;-72
2020/12/27 14:16:55;;;;;;;1.00;1.00;;;;;;;6.30;37.71;93048.25;7005744;28;20211;-72
2020/12/27 14:20:19;;;;;;;4.33;0.90;;;;;;;6.47;36.87;93048.09;6998096;28;20229;-72
2020/12/27 14:23:44;;;;;;;0.80;0.80;;;;;;;6.66;36.32;93028.47;7005366;28;20226;-73
2020/12/27 14:27:04;;;;;;;0.50;0.50;;;;;;;6.82;35.69;93017.91;7001550;28;20732;-72
2020/12/27 14:30:26;;;;;;;0.63;0.63;;;;;;;7.11;35.09;93013.88;6971134;28;20713;-72
2020/12/27 14:33:47;;;;;;;1.57;0.77;;;;;;;7.25;35.55;92992.03;6981544;28;20981;-72
2020/12/27 14:37:07;;;;;;;0.90;0.90;;;;;;;7.42;34.51;92998.91;6974525;28;20218;-72
2020/12/27 14:40:28;;;;;;;1.83;0.70;;;;;;;7.50;34.80;93000.66;6996113;28;20233;-73
2020/12/27 14:43:50;;;;;;;0.70;0.70;;;;;;;7.60;33.79;92975.69;7013787;28;20824;-73
2020/12/27 14:47:13;;;;;;;0.60;0.60;;;;;;;7.82;32.90;92975.91;7001666;28;20794;-73
2020/12/27 14:50:33;;;;;;;0.50;0.50;;;;;;;7.97;32.60;92955.66;6991271;28;20232;-72
2020/12/27 14:53:54;;;;;;;0.60;0.60;;;;;;;8.11;31.94;92955.72;6998455;28;20222;-72
2020/12/27 14:57:14;;;;;;;2.17;0.60;;;;;;;8.22;31.35;92937.78;7018152;28;20221;-73
2020/12/27 15:00:37;;;;;;;0.90;0.90;;;;;;;8.30;31.38;92941.19;7000585;28;20222;-72
2020/12/27 15:03:59;;;;;;;1.00;0.90;;;;;;;8.31;31.90;92932.28;6998106;28;20251;-72
2020/12/27 15:07:20;;;;;;;0.90;0.90;;;;;;;8.36;32.25;92924.63;7017301;28;20223;-73
2020/12/27 15:10:40;;;;;;;0.60;0.57;;;;;;;8.41;31.86;92935.50;7025555;28;20224;-73
2020/12/27 15:14:00;;;;;;;0.80;0.80;;;;;;;8.45;31.79;92917.47;7019488;28;21020;-72
2020/12/27 15:17:23;;;;;;;0.80;0.80;;;;;;;8.51;32.12;92914.06;6984929;28;20313;-72
2020/12/27 15:20:44;;;;;;;0.80;0.80;;;;;;;8.48;31.97;92883.53;7020409;28;20226;-72
2020/12/27 15:24:04;;;;;;;0.80;0.80;;;;;;;8.45;32.41;92878.59;7010513;28;20219;-72
2020/12/27 15:27:24;;;;;;;0.90;0.90;;;;;;;8.47;32.91;92883.72;6997395;27;20219;-73
2020/12/27 15:30:45;;;;;;;0.70;0.70;;;;;;;8.46;32.89;92874.94;7014664;28;20302;-72
2020/12/27 15:34:05;;;;;;;0.80;0.60;;;;;;;8.48;33.40;92872.97;7036211;27;20210;-72
2020/12/27 15:37:26;;;;;;;1.07;0.93;;;;;;;8.49;33.19;92847.34;7021850;28;20222;-72
2020/12/27 15:40:49;;;;;;;0.80;0.80;;;;;;;8.48;34.17;92861.56;6998572;28;20231;-72
2020/12/27 15:44:09;;;;;;;0.80;0.80;;;;;;;8.44;34.45;92816.16;6988556;28;20290;-73
2020/12/27 15:47:34;;;;;;;0.70;0.70;;;;;;;8.50;34.34;92810.09;7016483;28;20575;-73
2020/12/27 15:50:55;;;;;;;0.63;0.63;;;;;;;8.49;34.97;92799.72;7001261;28;20272;-72
2020/12/27 15:54:17;;;;;;;0.87;0.80;;;;;;;8.45;34.83;92787.88;7011476;28;20311;-72